Terminal Aerodrome Forecast
Issued by NWS

Home | Current Version | Previous Version | Text Only | Print | Product List | Glossary On
Versions: 1 2 3 4 5 6 7 8 9 10 11 12 13 14 15 16 17 18 19 20 21
000
FTUS44 KLIX 301700 RRA
TAFHUM
TAF
KHUM 301759Z 3018/3118 18012KT 6SM RA BKN020
      TEMPO 3018/3022 VRB15G25KT 1SM TSRA BKN020CB
     FM310030 19007KT P6SM BKN090
     FM310500 18006KT P6SM BKN200
     FM311000 14004KT P6SM BKN150
     FM311400 14006KT P6SM BKN250=

USA.gov is the U.S. government's official web portal to all federal, state and local government web resources and services.